Time;durP1;ratioP1;P1;durP2;ratioP2;P2;SDS_P1;SDS_P2;PMS_P1;PMS_P2;Temp;Humidity;BMP_temperature;BMP_pressure;BME280_temperature;BME280_humidity;BME280_pressure;Samples;Min_cycle;Max_cycle;Signal;HPM_P1;HPM_P2
2022/12/12 00:00:21;;;;;;;35.73;19.33;;;-2.30;68.10;;;;;;5054625;28;20179;-70
2022/12/12 00:02:47;;;;;;;31.88;18.10;;;-2.20;73.90;;;;;;5054496;28;20623;-71
2022/12/12 00:05:17;;;;;;;33.30;17.97;;;-2.10;72.90;;;;;;5053108;28;20290;-71
2022/12/12 00:07:43;;;;;;;28.50;15.82;;;-2.00;74.60;;;;;;5054680;28;20262;-71
2022/12/12 00:10:10;;;;;;;24.80;15.90;;;-1.90;85.00;;;;;;5054248;28;20258;-72
2022/12/12 00:12:36;;;;;;;29.40;17.55;;;-1.90;78.80;;;;;;5053256;28;20413;-71
2022/12/12 00:15:02;;;;;;;32.13;17.10;;;-1.90;84.20;;;;;;5053152;28;20203;-70
2022/12/12 00:17:27;;;;;;;29.97;17.43;;;-1.90;81.60;;;;;;5054487;28;20171;-71
2022/12/12 00:19:53;;;;;;;30.60;19.70;;;-1.90;85.80;;;;;;5037882;28;20954;-71
2022/12/12 00:22:19;;;;;;;28.40;17.57;;;-1.80;86.40;;;;;;5032759;28;20254;-70
2022/12/12 00:24:44;;;;;;;27.67;17.97;;;-1.70;86.30;;;;;;5046843;28;20229;-72
2022/12/12 00:27:10;;;;;;;29.47;17.67;;;-1.60;86.40;;;;;;5054012;28;20167;-71
2022/12/12 00:29:36;;;;;;;29.90;17.10;;;-1.60;86.50;;;;;;5054268;28;20523;-70
2022/12/12 00:32:02;;;;;;;27.60;17.97;;;-1.70;84.60;;;;;;5053866;28;20178;-71
2022/12/12 00:34:27;;;;;;;37.63;18.70;;;-1.70;86.50;;;;;;5053014;28;20230;-71
2022/12/12 00:36:53;;;;;;;33.57;19.27;;;-1.60;86.60;;;;;;5053699;28;20508;-72
2022/12/12 00:39:19;;;;;;;31.83;18.50;;;-1.50;86.80;;;;;;5053702;28;20178;-71
2022/12/12 00:41:45;;;;;;;31.50;20.07;;;-1.50;86.60;;;;;;5049091;28;20230;-73
2022/12/12 00:44:11;;;;;;;29.45;16.48;;;-1.40;86.70;;;;;;5033524;28;20206;-70
2022/12/12 00:46:37;;;;;;;41.03;18.40;;;-1.30;86.80;;;;;;5041092;28;20167;-70
2022/12/12 00:49:03;;;;;;;33.43;17.10;;;-1.20;86.80;;;;;;5053914;28;20523;-70
2022/12/12 00:51:29;;;;;;;35.83;20.50;;;-1.20;86.90;;;;;;5053554;28;20178;-70
2022/12/12 00:53:56;;;;;;;29.45;18.10;;;-1.40;86.70;;;;;;5053603;28;20187;-71
2022/12/12 00:56:23;;;;;;;35.28;18.63;;;-1.50;86.80;;;;;;5052204;28;20730;-72
2022/12/12 00:58:50;;;;;;;30.98;17.35;;;-1.50;86.60;;;;;;5052557;28;20190;-71
2022/12/12 01:01:19;;;;;;;44.10;18.40;;;-1.40;86.80;;;;;;5053305;28;20182;-71
2022/12/12 01:03:44;;;;;;;36.80;17.50;;;-1.30;92.30;;;;;;5053442;28;20716;-71
2022/12/12 01:06:11;;;;;;;33.20;19.23;;;-1.20;90.80;;;;;;5067667;28;20269;-70
2022/12/12 01:08:38;;;;;;;31.55;19.77;;;-1.10;93.00;;;;;;5053334;28;20239;-70
2022/12/12 01:11:04;;;;;;;32.67;17.75;;;-1.00;94.60;;;;;;5053330;28;20231;-71
2022/12/12 01:13:30;;;;;;;24.75;16.92;;;-1.00;93.20;;;;;;5053416;28;20631;-71
2022/12/12 01:15:56;;;;;;;27.97;17.20;;;-0.90;94.20;;;;;;5052399;28;20186;-70
2022/12/12 01:18:22;;;;;;;31.42;17.70;;;-0.90;95.10;;;;;;5052395;28;20409;-70
2022/12/12 01:20:47;;;;;;;27.47;16.20;;;-1.10;89.20;;;;;;5053039;28;20205;-70
2022/12/12 01:23:13;;;;;;;26.50;17.37;;;-1.20;91.80;;;;;;5053303;28;20205;-70
2022/12/12 01:25:39;;;;;;;35.77;17.33;;;-1.10;92.50;;;;;;5052309;28;20190;-70
2022/12/12 01:28:05;;;;;;;25.30;17.17;;;-1.10;94.80;;;;;;5068433;28;20244;-71
2022/12/12 01:30:31;;;;;;;31.17;17.00;;;-1.00;93.10;;;;;;5053298;28;20171;-72
2022/12/12 01:32:57;;;;;;;26.23;16.70;;;-1.00;94.40;;;;;;5052955;28;20179;-70
2022/12/12 01:35:23;;;;;;;28.90;19.43;;;-1.00;94.00;;;;;;5053627;28;20487;-71
2022/12/12 01:37:48;;;;;;;27.33;17.33;;;-1.00;95.60;;;;;;5057015;28;20190;-71
2022/12/12 01:40:23;;;;;;;27.80;15.57;;;-1.00;96.40;;;;;;5057271;28;20394;-69
2022/12/12 01:42:50;;;;;;;23.17;16.20;;;-1.00;94.60;;;;;;5056823;28;20805;-71
2022/12/12 01:45:53;;;;;;;28.58;16.15;;;-1.10;92.50;;;;;;5056210;28;20218;-71
2022/12/12 01:48:21;;;;;;;25.58;15.07;;;-1.10;90.20;;;;;;5056893;28;20174;-70
2022/12/12 01:50:48;;;;;;;29.17;17.42;;;-1.10;88.90;;;;;;5056912;28;20646;-71
2022/12/12 01:53:17;;;;;;;23.30;16.30;;;-1.20;86.80;;;;;;5056676;28;20178;-71
2022/12/12 01:55:44;;;;;;;25.90;15.68;;;-1.40;86.70;;;;;;5055825;28;20191;-71
2022/12/12 01:58:10;;;;;;;26.67;16.75;;;-1.40;86.90;;;;;;5069499;28;20186;-70
2022/12/12 02:00:35;;;;;;;32.17;17.17;;;-1.50;86.60;;;;;;5055536;28;20543;-72
2022/12/12 02:03:01;;;;;;;27.50;15.10;;;-1.50;86.70;;;;;;5071795;28;20229;-70
2022/12/12 02:05:36;;;;;;;25.70;15.93;;;-1.60;86.60;;;;;;5055877;28;20264;-71
2022/12/12 02:08:04;;;;;;;24.48;15.57;;;-1.50;86.70;;;;;;5056507;28;20567;-70
2022/12/12 02:10:30;;;;;;;33.85;16.95;;;-1.40;86.90;;;;;;5056441;28;20175;-70
2022/12/12 02:13:09;;;;;;;26.70;15.10;;;-1.30;89.90;;;;;;5056613;28;20313;-69
2022/12/12 02:15:59;;;;;;;19.02;13.85;;;-1.20;93.00;;;;;;5055439;28;20658;-71
2022/12/12 02:18:34;;;;;;;20.58;14.30;;;-1.20;92.70;;;;;;5054874;28;20703;-71
2022/12/12 02:21:29;;;;;;;22.48;14.57;;;-1.20;95.10;;;;;;5056524;28;20166;-72
2022/12/12 02:24:01;;;;;;;22.25;14.70;;;-1.10;95.60;;;;;;5056475;28;20217;-70
2022/12/12 02:27:00;;;;;;;21.70;14.38;;;-1.10;95.40;;;;;;5055293;28;20265;-71
2022/12/12 02:29:45;;;;;;;22.90;14.70;;;-1.10;97.20;;;;;;5055137;28;20278;-71
2022/12/12 02:32:24;;;;;;;17.75;12.45;;;-1.00;98.80;;;;;;5056031;28;20191;-70
2022/12/12 02:35:34;;;;;;;21.20;13.88;;;-1.00;91.90;;;;;;5055283;28;20182;-71
2022/12/12 02:38:25;;;;;;;24.13;12.55;;;-1.00;94.40;;;;;;5032652;28;20187;-70
2022/12/12 02:41:12;;;;;;;26.20;13.98;;;-1.00;96.20;;;;;;5036694;28;20686;-70
2022/12/12 02:44:03;;;;;;;16.60;11.48;;;-0.90;98.10;;;;;;5036044;28;20686;-71
2022/12/12 02:46:50;;;;;;;12.48;9.52;;;-0.90;99.90;;;;;;5040307;28;20175;-71
2022/12/12 02:49:31;;;;;;;9.63;7.80;;;-0.90;99.90;;;;;;5054885;28;20527;-70
2022/12/12 02:51:59;;;;;;;8.82;7.63;;;-0.90;99.90;;;;;;5055819;28;20171;-70
2022/12/12 02:54:25;;;;;;;11.25;8.25;;;-0.90;99.90;;;;;;5054938;28;20195;-71
2022/12/12 02:56:55;;;;;;;11.30;7.17;;;-0.90;99.90;;;;;;5051104;28;20176;-71
2022/12/12 02:59:29;;;;;;;12.65;8.63;;;-0.90;99.90;;;;;;5043963;28;20231;-70
2022/12/12 03:01:58;;;;;;;11.02;8.15;;;-0.90;99.90;;;;;;5055775;28;20224;-71
2022/12/12 03:07:47;;;;;;;7.78;6.97;;;-0.80;99.90;;;;;;5055485;28;20186;-70
2022/12/12 03:10:29;;;;;;;13.15;7.72;;;-0.70;99.90;;;;;;5055412;28;20174;-71
2022/12/12 03:13:12;;;;;;;9.25;7.05;;;-0.80;99.90;;;;;;5055600;28;20177;-70
2022/12/12 03:15:58;;;;;;;12.63;7.15;;;-0.80;99.90;;;;;;5053979;28;20211;-71
2022/12/12 03:18:37;;;;;;;8.45;7.68;;;-0.90;99.90;;;;;;5055467;28;20174;-72
2022/12/12 03:21:18;;;;;;;12.82;8.48;;;-0.90;99.90;;;;;;5055157;28;20601;-73
2022/12/12 03:23:48;;;;;;;9.80;7.60;;;-1.00;99.90;;;;;;5070776;28;20720;-70
2022/12/12 03:26:32;;;;;;;13.95;7.13;;;-1.00;99.90;;;;;;5054092;28;20659;-71
2022/12/12 03:29:29;;;;;;;10.65;7.88;;;-1.00;99.90;;;;;;5055133;28;20242;-71
2022/12/12 03:32:04;;;;;;;15.27;7.95;;;-1.00;99.90;;;;;;5019492;28;20180;-71
2022/12/12 03:34:36;;;;;;;11.20;7.55;;;-1.00;99.90;;;;;;5037972;28;20202;-71
2022/12/12 03:37:11;;;;;;;11.07;8.45;;;-0.90;99.90;;;;;;5055131;28;20194;-70
2022/12/12 03:39:50;;;;;;;9.63;7.88;;;-1.00;99.90;;;;;;5054728;28;20177;-70
2022/12/12 03:42:34;;;;;;;14.40;8.13;;;-1.10;99.90;;;;;;5055023;28;20170;-70
2022/12/12 03:45:04;;;;;;;11.48;8.93;;;-1.10;99.90;;;;;;5053711;28;20190;-71
2022/12/12 03:47:40;;;;;;;16.27;8.55;;;-1.10;99.90;;;;;;5054958;28;20174;-71
2022/12/12 03:50:14;;;;;;;10.13;6.85;;;-1.10;99.90;;;;;;5054259;28;20650;-71
2022/12/12 03:52:50;;;;;;;10.02;7.63;;;-1.20;99.90;;;;;;5054863;28;20178;-71
2022/12/12 03:55:30;;;;;;;8.82;7.35;;;-1.10;99.90;;;;;;5053480;28;20194;-71
2022/12/12 03:58:07;;;;;;;11.85;8.30;;;-1.00;99.90;;;;;;5054022;28;20201;-70
2022/12/12 04:00:36;;;;;;;13.90;7.18;;;-1.00;99.90;;;;;;5054358;28;20175;-71
2022/12/12 04:03:10;;;;;;;8.25;7.03;;;-1.10;99.90;;;;;;5054493;28;20730;-72
2022/12/12 04:06:38;;;;;;;13.90;8.48;;;-1.00;99.90;;;;;;5032263;28;20211;-71
2022/12/12 04:12:57;;;;;;;11.52;7.88;;;-1.10;99.90;;;;;;5032321;28;20179;-69
2022/12/12 04:14:40;;;;;;;12.10;8.18;;;-1.10;99.90;;;;;;5053834;28;20706;-70
2022/12/12 04:17:10;;;;;;;13.48;8.00;;;-1.10;99.90;;;;;;5054292;28;20170;-70
2022/12/12 04:25:33;;;;;;;13.77;7.13;;;-0.90;99.90;;;;;;5053673;28;20241;-72
2022/12/12 04:28:04;;;;;;;11.02;8.25;;;-0.80;99.90;;;;;;5053682;28;20249;-71
2022/12/12 04:30:33;;;;;;;11.07;8.27;;;-0.80;99.90;;;;;;5053914;28;20174;-71
2022/12/12 04:33:12;;;;;;;15.05;7.63;;;-0.70;99.90;;;;;;5053752;28;20171;-70
2022/12/12 04:35:42;;;;;;;9.63;7.10;;;-0.60;99.90;;;;;;5068129;28;20242;-70
2022/12/12 04:38:14;;;;;;;9.98;7.60;;;-0.50;99.90;;;;;;5052950;28;20247;-71
2022/12/12 04:40:43;;;;;;;12.63;8.80;;;-0.40;99.90;;;;;;5052363;28;20508;-70
2022/12/12 04:43:19;;;;;;;11.50;6.68;;;-0.40;99.90;;;;;;5052754;28;20198;-70
2022/12/12 04:46:00;;;;;;;14.90;8.65;;;-0.30;99.90;;;;;;5052644;28;20222;-70
2022/12/12 04:48:58;;;;;;;9.73;6.68;;;-0.40;99.90;;;;;;5052770;28;20178;-71
2022/12/12 04:51:35;;;;;;;8.98;6.60;;;-0.40;99.90;;;;;;5040498;28;20201;-71
2022/12/12 04:54:33;;;;;;;10.55;6.90;;;-0.50;99.90;;;;;;5052456;28;20685;-75
2022/12/12 04:57:03;;;;;;;11.10;6.93;;;-0.60;99.90;;;;;;5045962;28;20187;-71
2022/12/12 04:59:29;;;;;;;8.60;6.30;;;-0.60;99.90;;;;;;5052672;28;20171;-70
2022/12/12 05:02:18;;;;;;;11.45;7.78;;;-0.60;99.90;;;;;;5053334;28;20174;-70
2022/12/12 05:04:52;;;;;;;10.75;7.30;;;-0.70;99.90;;;;;;5046931;28;20218;-71
2022/12/12 05:07:34;;;;;;;8.88;6.78;;;-0.80;99.90;;;;;;5053264;28;20531;-70
2022/12/12 05:10:01;;;;;;;12.63;7.80;;;-0.90;99.90;;;;;;5052653;28;20166;-70
2022/12/12 05:12:27;;;;;;;7.82;6.20;;;-1.00;99.90;;;;;;5053041;28;20185;-72
2022/12/12 05:14:53;;;;;;;9.60;6.00;;;-1.00;99.90;;;;;;5051132;28;20191;-71
2022/12/12 05:17:29;;;;;;;10.13;6.67;;;-1.00;99.90;;;;;;5053192;28;20175;-70
2022/12/12 05:19:55;;;;;;;9.48;6.18;;;-1.00;99.90;;;;;;5053570;28;20158;-71
2022/12/12 05:22:21;;;;;;;8.75;6.18;;;-1.00;99.90;;;;;;5068465;28;20217;-72
2022/12/12 05:24:47;;;;;;;8.63;7.33;;;-1.00;99.90;;;;;;5050959;28;20539;-70
2022/12/12 05:27:12;;;;;;;13.60;10.60;;;-1.10;99.90;;;;;;5052782;28;20177;-70
2022/12/12 05:29:38;;;;;;;11.80;9.17;;;-1.10;99.90;;;;;;5053327;28;20232;-71
2022/12/12 05:32:04;;;;;;;8.10;7.37;;;-1.10;99.90;;;;;;5052979;28;20631;-72
2022/12/12 05:34:29;;;;;;;13.70;9.70;;;-1.20;99.90;;;;;;5051189;28;20663;-71
2022/12/12 05:36:55;;;;;;;9.73;8.03;;;-1.20;99.90;;;;;;5048152;28;20175;-72
2022/12/12 05:39:21;;;;;;;11.57;6.77;;;-1.20;99.90;;;;;;5033299;28;20174;-71
2022/12/12 05:41:47;;;;;;;8.50;7.03;;;-1.30;99.90;;;;;;5044126;28;20418;-70
2022/12/12 05:44:12;;;;;;;12.33;6.50;;;-1.30;99.90;;;;;;5032783;28;20595;-70
2022/12/12 05:46:38;;;;;;;9.07;7.57;;;-1.30;99.90;;;;;;5046055;28;20175;-70
2022/12/12 05:49:04;;;;;;;10.50;7.43;;;-1.30;99.90;;;;;;5053065;28;20786;-71
2022/12/12 05:51:30;;;;;;;12.10;9.00;;;-1.30;99.90;;;;;;5052863;28;20174;-71
2022/12/12 05:53:56;;;;;;;11.67;7.93;;;-1.30;99.90;;;;;;5052902;28;20191;-69
2022/12/12 05:56:22;;;;;;;7.60;6.83;;;-1.40;99.90;;;;;;5050782;28;20504;-70
2022/12/12 05:58:47;;;;;;;12.60;8.00;;;-1.50;99.90;;;;;;5052791;28;20171;-72
2022/12/12 06:01:13;;;;;;;8.97;8.07;;;-1.60;99.90;;;;;;5052631;28;20186;-71
2022/12/12 06:03:39;;;;;;;12.33;8.17;;;-1.60;99.90;;;;;;5052769;28;20210;-70
2022/12/12 06:06:05;;;;;;;14.73;9.60;;;-1.60;99.90;;;;;;5050338;28;20445;-70
2022/12/12 06:08:30;;;;;;;13.70;8.77;;;-1.70;99.90;;;;;;5051764;28;20171;-71
2022/12/12 06:10:56;;;;;;;14.63;9.20;;;-1.70;99.90;;;;;;5052496;28;20420;-71
2022/12/12 06:13:22;;;;;;;12.43;9.37;;;-1.70;99.90;;;;;;5052736;28;20653;-71
2022/12/12 06:15:47;;;;;;;18.93;9.50;;;-1.80;99.90;;;;;;5051390;28;20256;-70
2022/12/12 06:18:13;;;;;;;12.90;9.73;;;-1.90;99.90;;;;;;5052746;28;20175;-70
2022/12/12 06:20:39;;;;;;;18.80;10.87;;;-1.90;99.90;;;;;;5053486;28;20413;-70
2022/12/12 06:23:05;;;;;;;17.33;10.77;;;-1.90;99.90;;;;;;5050616;28;20936;-71
2022/12/12 06:25:31;;;;;;;21.20;12.67;;;-1.90;99.90;;;;;;5035595;28;20190;-70
2022/12/12 06:27:56;;;;;;;19.93;11.40;;;-2.00;99.90;;;;;;5045708;28;20417;-70
2022/12/12 06:30:22;;;;;;;13.30;9.90;;;-2.00;99.90;;;;;;5056432;28;20170;-71
2022/12/12 06:32:48;;;;;;;29.90;20.30;;;-2.00;99.90;;;;;;5055410;28;20578;-71
2022/12/12 06:35:14;;;;;;;18.07;11.93;;;-2.00;99.90;;;;;;5055491;28;20202;-71
2022/12/12 06:37:40;;;;;;;15.82;10.13;;;-2.10;99.90;;;;;;5056380;28;20174;-70
2022/12/12 06:40:07;;;;;;;12.30;9.50;;;-2.10;99.90;;;;;;5055456;28;20619;-70
2022/12/12 06:42:33;;;;;;;14.32;9.32;;;-2.10;99.90;;;;;;5056069;28;20442;-71
2022/12/12 06:44:58;;;;;;;12.70;9.47;;;-2.00;99.90;;;;;;5055471;28;20197;-73
2022/12/12 06:47:24;;;;;;;14.10;10.00;;;-2.00;99.90;;;;;;5054753;28;20175;-69
2022/12/12 06:49:50;;;;;;;13.73;9.67;;;-1.90;99.90;;;;;;5056190;28;20159;-72
2022/12/12 06:52:15;;;;;;;13.80;9.57;;;-1.90;99.90;;;;;;5055050;28;20206;-71
2022/12/12 06:54:41;;;;;;;12.73;9.00;;;-2.00;99.90;;;;;;5055519;28;20187;-70
2022/12/12 06:57:07;;;;;;;16.03;10.13;;;-2.00;99.90;;;;;;5055871;28;20647;-71
2022/12/12 06:59:32;;;;;;;12.83;8.27;;;-2.00;99.90;;;;;;5055776;28;20650;-71
2022/12/12 07:01:59;;;;;;;11.23;8.77;;;-2.00;99.90;;;;;;5055814;28;20167;-71
2022/12/12 07:04:25;;;;;;;13.85;8.65;;;-2.00;99.90;;;;;;5053721;28;20202;-71
2022/12/12 07:06:51;;;;;;;13.07;9.60;;;-2.00;99.90;;;;;;5055606;28;20197;-72
2022/12/12 07:09:18;;;;;;;14.95;9.65;;;-2.10;99.90;;;;;;5054301;28;20177;-71
2022/12/12 07:11:44;;;;;;;13.98;9.75;;;-2.10;99.90;;;;;;5055514;28;20254;-71
2022/12/12 07:14:10;;;;;;;14.50;9.40;;;-2.10;99.90;;;;;;5055432;28;20214;-71
2022/12/12 07:16:36;;;;;;;15.27;9.35;;;-2.10;99.90;;;;;;5055061;28;20834;-70
2022/12/12 07:19:02;;;;;;;11.30;8.13;;;-2.20;99.90;;;;;;5054130;28;20262;-71
2022/12/12 07:21:28;;;;;;;14.90;10.20;;;-2.20;99.90;;;;;;5053955;28;20417;-71
2022/12/12 07:23:55;;;;;;;16.40;10.40;;;-2.30;99.90;;;;;;5055213;28;20456;-69
2022/12/12 07:26:23;;;;;;;12.30;9.20;;;-2.30;99.90;;;;;;5054715;28;20433;-70
2022/12/12 07:28:50;;;;;;;10.40;8.77;;;-2.40;99.90;;;;;;5055361;28;20159;-70
2022/12/12 07:31:20;;;;;;;18.90;10.95;;;-2.40;99.90;;;;;;5055440;28;20155;-70
2022/12/12 07:33:46;;;;;;;13.73;10.80;;;-2.40;99.90;;;;;;5054296;28;20195;-71
2022/12/12 07:36:14;;;;;;;21.02;11.55;;;-2.40;99.90;;;;;;5054530;28;20265;-70
2022/12/12 07:38:41;;;;;;;20.40;11.70;;;-2.50;99.90;;;;;;5055159;28;20628;-70
2022/12/12 07:41:12;;;;;;;16.15;10.02;;;-2.50;99.90;;;;;;5055268;28;20627;-70
2022/12/12 07:43:39;;;;;;;15.70;9.45;;;-2.50;99.90;;;;;;5054731;28;20202;-71
2022/12/12 07:46:06;;;;;;;14.20;9.40;;;-2.50;99.90;;;;;;5053102;28;20244;-70
2022/12/12 07:48:32;;;;;;;18.70;10.90;;;-2.50;99.90;;;;;;5054911;28;20167;-70
2022/12/12 07:50:59;;;;;;;18.30;10.40;;;-2.50;99.90;;;;;;5054953;28;20738;-71
2022/12/12 07:53:25;;;;;;;14.93;11.20;;;-2.50;99.90;;;;;;5054855;28;20175;-70
2022/12/12 07:55:51;;;;;;;18.60;13.73;;;-2.50;99.90;;;;;;5054069;28;20167;-71
2022/12/12 07:58:16;;;;;;;22.40;12.63;;;-2.60;99.90;;;;;;5054859;28;20437;-71
2022/12/12 08:00:43;;;;;;;16.67;10.40;;;-2.60;99.90;;;;;;5054751;28;20167;-71
2022/12/12 08:03:08;;;;;;;13.32;11.20;;;-2.60;99.90;;;;;;5054578;28;20186;-71
2022/12/12 08:05:34;;;;;;;15.73;10.20;;;-2.60;98.90;;;;;;5053828;28;20202;-71
2022/12/12 08:08:00;;;;;;;21.40;13.47;;;-2.70;99.50;;;;;;5054509;28;20163;-71
2022/12/12 08:10:27;;;;;;;17.45;11.55;;;-2.70;98.40;;;;;;5053202;28;20686;-70
2022/12/12 08:12:52;;;;;;;18.50;12.20;;;-2.80;94.40;;;;;;5054577;28;20171;-71
2022/12/12 08:15:19;;;;;;;17.60;12.00;;;-2.80;94.50;;;;;;5053746;28;20189;-71
2022/12/12 08:17:45;;;;;;;27.58;11.25;;;-2.80;94.70;;;;;;5054262;28;20163;-71
2022/12/12 08:20:10;;;;;;;19.53;12.07;;;-2.80;96.00;;;;;;5054258;28;20178;-71
2022/12/12 08:22:36;;;;;;;16.83;10.50;;;-2.80;95.90;;;;;;5054280;28;20249;-71
2022/12/12 08:25:02;;;;;;;20.07;13.13;;;-2.70;97.30;;;;;;5053729;28;20722;-70
2022/12/12 08:27:28;;;;;;;20.57;11.03;;;-2.70;97.30;;;;;;5053120;28;20201;-70
2022/12/12 08:29:54;;;;;;;25.58;14.18;;;-2.70;99.70;;;;;;5054107;28;20565;-70
2022/12/12 08:32:20;;;;;;;23.07;13.37;;;-2.60;98.00;;;;;;5052918;28;20209;-71
2022/12/12 08:34:46;;;;;;;18.23;13.40;;;-2.60;99.80;;;;;;5053424;28;20671;-71
2022/12/12 08:37:12;;;;;;;20.63;12.05;;;-2.60;99.90;;;;;;5052795;28;20246;-71
2022/12/12 08:39:38;;;;;;;17.07;10.70;;;-2.70;98.60;;;;;;5054087;28;20262;-70
2022/12/12 08:42:04;;;;;;;21.23;14.07;;;-2.70;98.70;;;;;;5053998;28;20408;-71
2022/12/12 08:44:30;;;;;;;28.47;15.03;;;-2.70;99.80;;;;;;5051670;28;20457;-70
2022/12/12 08:46:55;;;;;;;19.27;14.10;;;-2.60;99.20;;;;;;5053260;28;20228;-71
2022/12/12 08:49:21;;;;;;;19.43;14.60;;;-2.60;98.20;;;;;;5053898;28;20171;-70
2022/12/12 08:51:47;;;;;;;21.23;14.20;;;-2.50;99.80;;;;;;5052498;28;20171;-70
2022/12/12 08:54:13;;;;;;;25.80;14.77;;;-2.50;99.80;;;;;;5053429;28;20191;-74
2022/12/12 08:56:39;;;;;;;23.07;14.57;;;-2.40;99.90;;;;;;5052058;28;20448;-70
2022/12/12 08:59:05;;;;;;;25.73;14.52;;;-2.20;99.90;;;;;;5053701;28;20409;-70
2022/12/12 09:01:31;;;;;;;29.48;15.00;;;-2.10;99.90;;;;;;5052343;28;20182;-71
2022/12/12 09:03:58;;;;;;;23.23;14.15;;;-2.00;99.90;;;;;;5053532;28;20194;-70
2022/12/12 09:06:24;;;;;;;26.88;14.73;;;-1.90;99.90;;;;;;5051378;28;20740;-71
2022/12/12 09:08:50;;;;;;;24.33;15.85;;;-1.80;99.90;;;;;;5053711;28;20163;-71
2022/12/12 09:11:16;;;;;;;22.97;15.00;;;-1.70;99.90;;;;;;5053489;28;20520;-70
2022/12/12 09:13:43;;;;;;;19.15;14.27;;;-1.70;99.90;;;;;;5053539;28;20433;-71
2022/12/12 09:16:09;;;;;;;28.67;14.80;;;-1.70;99.90;;;;;;5052729;28;20170;-71
2022/12/12 09:18:36;;;;;;;27.90;16.10;;;-1.70;99.90;;;;;;5053258;28;20205;-70
2022/12/12 09:21:02;;;;;;;27.80;14.02;;;-1.70;99.90;;;;;;5053515;28;20221;-71
2022/12/12 09:23:28;;;;;;;23.07;14.87;;;-1.60;99.90;;;;;;5053288;28;20230;-70
2022/12/12 09:25:54;;;;;;;24.00;16.27;;;-1.50;99.90;;;;;;5051600;28;20432;-70
2022/12/12 09:28:21;;;;;;;29.92;15.70;;;-1.50;99.90;;;;;;5053202;28;20171;-72
2022/12/12 09:30:47;;;;;;;25.00;14.40;;;-1.50;99.90;;;;;;5051857;28;20239;-71
2022/12/12 09:33:14;;;;;;;23.20;14.60;;;-1.50;99.90;;;;;;5053311;28;20672;-71
2022/12/12 09:35:41;;;;;;;21.40;13.75;;;-1.50;99.90;;;;;;5052567;28;20425;-71
2022/12/12 09:38:07;;;;;;;29.08;16.10;;;-1.50;99.90;;;;;;5053367;28;20174;-71
2022/12/12 09:41:19;;;;;;;23.45;14.40;;;-1.40;99.90;;;;;;5053170;28;20159;-70
2022/12/12 09:44:00;;;;;;;24.70;14.23;;;-1.30;99.90;;;;;;5050911;28;20608;-70
2022/12/12 09:46:59;;;;;;;26.83;15.30;;;-1.20;99.90;;;;;;5051392;28;20170;-71
2022/12/12 09:49:44;;;;;;;31.40;15.45;;;-1.20;99.90;;;;;;5053115;28;20246;-71
2022/12/12 09:52:15;;;;;;;21.83;14.68;;;-1.20;99.90;;;;;;5053216;28;20167;-71
2022/12/12 09:54:42;;;;;;;26.73;15.30;;;-1.10;99.90;;;;;;5052299;28;20183;-71
2022/12/12 09:57:34;;;;;;;32.63;15.93;;;-1.20;99.90;;;;;;5056477;28;20244;-70
2022/12/12 10:00:11;;;;;;;28.85;15.57;;;-1.10;99.90;;;;;;5055976;28;20693;-70
2022/12/12 10:03:04;;;;;;;20.52;13.85;;;-1.10;99.90;;;;;;5055559;28;20589;-71
2022/12/12 10:05:40;;;;;;;24.77;16.13;;;-1.10;99.90;;;;;;5056145;28;20190;-70
2022/12/12 10:08:43;;;;;;;26.23;14.23;;;-1.00;99.90;;;;;;5056806;28;20166;-71
2022/12/12 10:14:01;;;;;;;24.00;15.27;;;-0.90;99.90;;;;;;5056647;28;20260;-70
2022/12/12 10:16:30;;;;;;;31.80;16.95;;;-0.90;99.90;;;;;;5056124;28;20163;-71
2022/12/12 10:19:06;;;;;;;21.90;14.07;;;-0.70;99.90;;;;;;5056551;28;20182;-71
2022/12/12 10:21:36;;;;;;;23.77;14.65;;;-0.60;99.90;;;;;;5056589;28;20167;-70
2022/12/12 10:24:26;;;;;;;18.80;12.82;;;-0.60;99.90;;;;;;5056270;28;20697;-70
2022/12/12 10:26:53;;;;;;;23.63;13.85;;;-0.50;99.90;;;;;;5056383;28;20187;-70
2022/12/12 10:29:21;;;;;;;21.73;15.15;;;-0.40;99.90;;;;;;5055152;28;20531;-70
2022/12/12 10:32:19;;;;;;;17.90;12.30;;;-0.40;99.90;;;;;;5056621;28;20167;-70
2022/12/12 10:35:00;;;;;;;24.05;13.70;;;-0.20;99.90;;;;;;5055636;28;20179;-70
2022/12/12 10:37:32;;;;;;;27.92;13.27;;;-0.20;99.90;;;;;;5056361;28;20749;-70
2022/12/12 10:40:11;;;;;;;17.95;11.90;;;-0.10;99.90;;;;;;5056204;28;20166;-70
2022/12/12 10:42:52;;;;;;;17.15;11.77;;;0.10;99.90;;;;;;5055233;28;20198;-71
2022/12/12 10:45:44;;;;;;;17.73;12.50;;;0.20;99.90;;;;;;5055389;28;20213;-70
2022/12/12 10:48:10;;;;;;;16.65;12.18;;;0.40;99.90;;;;;;5056118;28;20175;-70
2022/12/12 10:50:52;;;;;;;14.43;10.63;;;0.40;99.90;;;;;;5056306;28;20163;-70
2022/12/12 10:53:19;;;;;;;19.77;12.18;;;0.50;99.90;;;;;;5055955;28;20405;-71
2022/12/12 10:55:55;;;;;;;23.48;10.77;;;0.60;99.90;;;;;;5055295;28;20229;-71
2022/12/12 10:58:36;;;;;;;16.58;10.68;;;0.70;99.90;;;;;;5054917;28;20182;-71
2022/12/12 11:01:09;;;;;;;13.82;9.90;;;0.70;99.90;;;;;;5055975;28;20163;-71
2022/12/12 11:03:40;;;;;;;14.43;10.55;;;0.60;99.90;;;;;;5054551;28;20206;-71
2022/12/12 11:06:10;;;;;;;19.55;12.00;;;0.60;99.90;;;;;;5053764;28;20195;-70
2022/12/12 11:08:36;;;;;;;21.05;12.65;;;0.70;99.90;;;;;;5053270;28;20167;-71
2022/12/12 11:11:05;;;;;;;17.20;10.77;;;0.80;99.90;;;;;;5055696;28;20182;-70
2022/12/12 11:13:37;;;;;;;14.95;11.00;;;0.80;99.90;;;;;;5055378;28;20182;-71
2022/12/12 11:16:27;;;;;;;13.67;10.83;;;0.90;99.90;;;;;;5055007;28;20167;-70
2022/12/12 11:18:58;;;;;;;19.17;11.77;;;0.90;99.90;;;;;;5050327;28;20414;-71
2022/12/12 11:21:24;;;;;;;14.33;11.20;;;1.00;99.90;;;;;;5055382;28;20238;-70
2022/12/12 11:23:55;;;;;;;15.32;10.43;;;1.00;99.90;;;;;;5055266;28;20502;-71
2022/12/12 11:26:22;;;;;;;15.05;11.00;;;1.10;99.90;;;;;;5054691;28;20186;-70
2022/12/12 11:28:58;;;;;;;14.07;10.60;;;0.90;99.90;;;;;;5055480;28;20626;-70
2022/12/12 11:31:28;;;;;;;16.20;11.33;;;0.90;99.90;;;;;;5055203;28;20194;-70
2022/12/12 11:33:57;;;;;;;24.45;11.45;;;0.90;99.90;;;;;;5055054;28;20430;-70
2022/12/12 11:36:28;;;;;;;22.50;12.37;;;0.80;99.90;;;;;;5054613;28;20167;-70
2022/12/12 11:38:56;;;;;;;18.43;11.60;;;0.80;99.90;;;;;;5055190;28;20409;-70
2022/12/12 11:41:22;;;;;;;17.63;11.75;;;0.70;99.90;;;;;;5055122;28;20393;-71
2022/12/12 11:43:48;;;;;;;15.30;11.30;;;0.70;99.90;;;;;;5054912;28;20548;-70
2022/12/12 11:46:13;;;;;;;16.40;10.37;;;0.80;99.90;;;;;;5054300;28;20174;-71
2022/12/12 11:48:51;;;;;;;15.37;11.73;;;0.90;99.90;;;;;;5054959;28;20238;-71
2022/12/12 11:51:37;;;;;;;15.27;11.00;;;1.00;99.90;;;;;;5053601;28;20535;-70
2022/12/12 11:54:11;;;;;;;17.42;10.77;;;1.10;99.90;;;;;;5054730;28;20470;-71
2022/12/12 11:56:51;;;;;;;19.48;12.50;;;1.00;99.90;;;;;;5054406;28;20175;-70
2022/12/12 11:59:56;;;;;;;14.05;10.93;;;1.00;99.90;;;;;;5054421;28;20201;-70
2022/12/12 12:02:49;;;;;;;13.10;10.77;;;1.10;99.90;;;;;;5039028;28;20187;-70
2022/12/12 12:05:45;;;;;;;19.58;11.68;;;1.10;99.90;;;;;;5053953;28;20836;-70
2022/12/12 12:08:22;;;;;;;14.80;9.93;;;1.20;99.90;;;;;;5054624;28;20174;-71
2022/12/12 12:11:05;;;;;;;13.82;9.63;;;1.10;99.90;;;;;;5053547;28;20481;-70
2022/12/12 12:13:31;;;;;;;16.02;9.82;;;1.00;99.90;;;;;;5053164;28;20638;-70
2022/12/12 12:16:09;;;;;;;16.07;10.70;;;1.00;99.90;;;;;;5053701;28;20167;-70
2022/12/12 12:18:45;;;;;;;19.45;10.73;;;1.00;99.90;;;;;;5053948;28;20178;-70
2022/12/12 12:21:21;;;;;;;15.02;11.30;;;1.00;99.90;;;;;;5054387;28;20189;-70
2022/12/12 12:23:58;;;;;;;14.63;10.90;;;0.90;99.90;;;;;;5054081;28;20294;-71
2022/12/12 12:26:51;;;;;;;14.50;10.80;;;1.00;99.90;;;;;;5053602;28;20404;-70
2022/12/12 12:29:38;;;;;;;19.40;10.25;;;1.00;99.90;;;;;;5054131;28;20949;-71
2022/12/12 12:32:16;;;;;;;16.63;10.88;;;1.10;99.90;;;;;;5053985;28;20567;-71
2022/12/12 12:35:27;;;;;;;17.30;12.25;;;1.10;99.90;;;;;;5052304;28;20243;-70
2022/12/12 12:38:13;;;;;;;16.65;10.63;;;1.10;99.90;;;;;;5045223;28;20598;-71
2022/12/12 12:40:52;;;;;;;19.63;11.60;;;1.00;99.90;;;;;;5052788;28;20213;-70
2022/12/12 12:43:18;;;;;;;18.15;12.32;;;1.10;99.90;;;;;;5052639;28;20544;-70
2022/12/12 12:45:55;;;;;;;24.03;11.40;;;0.90;99.90;;;;;;5053153;28;20273;-70
2022/12/12 12:48:28;;;;;;;16.02;10.38;;;0.80;99.90;;;;;;5053977;28;20249;-70
2022/12/12 12:51:13;;;;;;;16.70;11.05;;;0.80;99.90;;;;;;5054130;28;20203;-70
2022/12/12 12:53:52;;;;;;;17.83;10.70;;;0.90;99.90;;;;;;5053751;28;20175;-70
2022/12/12 12:56:29;;;;;;;11.03;9.57;;;0.90;99.90;;;;;;5052031;28;20210;-70
2022/12/12 12:59:08;;;;;;;15.70;11.10;;;0.80;99.90;;;;;;5053846;28;20836;-70
2022/12/12 13:01:42;;;;;;;14.27;10.20;;;0.90;99.90;;;;;;5053838;28;20167;-69
2022/12/12 13:04:21;;;;;;;11.32;9.13;;;1.00;99.90;;;;;;5053247;28;20973;-70
2022/12/12 13:07:20;;;;;;;12.80;8.60;;;1.00;99.90;;;;;;5053518;28;20216;-71
2022/12/12 13:10:07;;;;;;;11.30;8.32;;;1.00;99.90;;;;;;5052238;28;20177;-71
2022/12/12 13:12:43;;;;;;;12.60;9.70;;;1.10;99.90;;;;;;5053428;28;20171;-71